Time;durP1;ratioP1;P1;durP2;ratioP2;P2;SDS_P1;SDS_P2;PMS_P1;PMS_P2;Temp;Humidity;BMP_temperature;BMP_pressure;BME280_temperature;BME280_humidity;BME280_pressure;Samples;Min_cycle;Max_cycle;Signal;HPM_P1;HPM_P2
2021/05/06 00:04:11;;;;;;;4.43;4.03;;;11.40;52.30;;;;;;1491732;39;20031;-53
2021/05/06 00:05:29;;;;;;;4.25;3.85;;;11.30;52.20;;;;;;1489390;39;20127;-52
2021/05/06 00:08:58;;;;;;;3.92;3.50;;;11.40;52.20;;;;;;1488862;39;20421;-53
2021/05/06 00:10:41;;;;;;;4.32;3.92;;;11.30;52.20;;;;;;1490258;39;20085;-51
2021/05/06 00:32:09;;;;;;;6.55;3.88;;;11.20;51.90;;;;;;1489561;39;20032;-50
2021/05/06 00:33:30;;;;;;;5.07;4.50;;;11.20;51.80;;;;;;1488987;39;20063;-53
2021/05/06 00:34:51;;;;;;;5.13;4.50;;;11.20;51.70;;;;;;1490471;39;20035;-48
2021/05/06 00:36:12;;;;;;;4.95;4.45;;;11.10;51.70;;;;;;1489520;39;20039;-52
2021/05/06 00:37:41;;;;;;;5.72;4.53;;;11.10;51.90;;;;;;1490203;39;20570;-53
2021/05/06 00:39:11;;;;;;;7.45;5.22;;;11.00;51.90;;;;;;1491250;39;20363;-51
2021/05/06 00:43:57;;;;;;;6.30;4.80;;;11.00;52.10;;;;;;1490645;39;20031;-50
2021/05/06 01:01:01;;;;;;;4.72;4.03;;;10.80;52.60;;;;;;1483067;39;20082;-50
2021/05/06 01:05:41;;;;;;;5.20;4.43;;;10.70;52.50;;;;;;1490156;39;20062;-54
2021/05/06 01:08:49;;;;;;;4.28;3.95;;;10.70;52.70;;;;;;1491639;39;20048;-53
2021/05/06 01:11:48;;;;;;;4.97;4.50;;;10.60;53.50;;;;;;1489846;39;20113;-53
2021/05/06 01:13:12;;;;;;;4.93;4.22;;;10.60;52.70;;;;;;1491405;39;20028;-52
2021/05/06 01:14:34;;;;;;;5.85;4.70;;;10.60;52.80;;;;;;1491929;39;20043;-51
2021/05/06 01:15:55;;;;;;;5.03;4.55;;;10.60;52.80;;;;;;1491812;39;20339;-52
2021/05/06 01:17:16;;;;;;;6.85;4.68;;;10.60;52.90;;;;;;1488602;39;20028;-50
2021/05/06 01:18:37;;;;;;;5.13;4.63;;;10.60;53.00;;;;;;1490345;39;20031;-52
2021/05/06 01:19:57;;;;;;;5.47;4.45;;;10.60;53.00;;;;;;1491146;39;20031;-50
2021/05/06 01:21:18;;;;;;;5.97;4.60;;;10.60;52.90;;;;;;1491603;39;20435;-50
2021/05/06 01:22:39;;;;;;;5.18;4.13;;;10.50;52.90;;;;;;1491349;39;20031;-55
2021/05/06 01:24:02;;;;;;;4.78;4.22;;;10.60;53.10;;;;;;1490589;39;20060;-51
2021/05/06 01:25:23;;;;;;;6.18;4.97;;;10.50;53.20;;;;;;1489049;39;20036;-53
2021/05/06 01:26:56;;;;;;;5.95;4.47;;;10.50;53.30;;;;;;1491175;39;20024;-53
2021/05/06 01:28:20;;;;;;;5.78;4.55;;;10.50;53.50;;;;;;1490284;39;20357;-51
2021/05/06 01:29:47;;;;;;;4.68;4.25;;;10.50;53.50;;;;;;1488943;39;20383;-50
2021/05/06 01:31:15;;;;;;;5.00;4.40;;;10.50;53.30;;;;;;1491737;39;20114;-53
2021/05/06 01:32:41;;;;;;;5.03;4.40;;;10.50;53.30;;;;;;1491758;39;20036;-53
2021/05/06 01:34:16;;;;;;;4.95;4.45;;;10.50;53.40;;;;;;1490749;39;20035;-54
2021/05/06 01:37:16;;;;;;;4.55;3.90;;;10.50;53.40;;;;;;1490033;39;20027;-52
2021/05/06 01:41:55;;;;;;;4.43;4.00;;;10.50;53.50;;;;;;1490964;39;20050;-53
2021/05/06 01:45:17;;;;;;;5.40;3.92;;;10.50;53.50;;;;;;1491738;39;20023;-51
2021/05/06 01:46:59;;;;;;;4.40;3.70;;;10.40;53.50;;;;;;1490970;39;20060;-52
2021/05/06 01:50:18;;;;;;;5.13;4.10;;;10.50;53.80;;;;;;1492287;39;20035;-53
2021/05/06 01:59:49;;;;;;;4.05;3.55;;;10.50;53.90;;;;;;1491719;39;20038;-53
2021/05/06 02:01:10;;;;;;;5.15;3.58;;;10.50;54.00;;;;;;1489635;39;20101;-53
2021/05/06 02:02:31;;;;;;;4.20;3.80;;;10.50;54.10;;;;;;1486754;40;20294;-55
2021/05/06 02:03:52;;;;;;;3.95;3.65;;;10.50;54.20;;;;;;1490649;39;20082;-54
2021/05/06 02:05:14;;;;;;;4.78;4.13;;;10.50;54.30;;;;;;1491923;39;20040;-55
2021/05/06 02:06:35;;;;;;;3.58;3.28;;;10.50;54.50;;;;;;1491074;39;20408;-54
2021/05/06 02:07:56;;;;;;;4.75;3.25;;;10.60;54.60;;;;;;1489871;39;20024;-51
2021/05/06 02:09:17;;;;;;;4.38;2.95;;;10.60;54.40;;;;;;1491147;39;20080;-51
2021/05/06 02:10:38;;;;;;;3.38;3.08;;;10.60;54.40;;;;;;1489536;39;20028;-50
2021/05/06 02:11:59;;;;;;;3.97;2.88;;;10.50;54.50;;;;;;1490019;39;20048;-54
2021/05/06 02:13:20;;;;;;;4.00;3.00;;;10.60;54.60;;;;;;1491829;39;20120;-53
2021/05/06 02:14:51;;;;;;;3.22;2.92;;;10.60;54.60;;;;;;1487667;40;20027;-51
2021/05/06 02:16:22;;;;;;;3.30;2.40;;;10.50;54.40;;;;;;1489389;39;20051;-51
2021/05/06 02:17:44;;;;;;;3.22;2.60;;;10.60;54.40;;;;;;1491632;39;20028;-53
2021/05/06 02:19:07;;;;;;;4.40;2.60;;;10.60;54.40;;;;;;1492145;39;20063;-52
2021/05/06 02:20:28;;;;;;;2.90;2.60;;;10.60;54.50;;;;;;1491660;39;20031;-52
2021/05/06 02:21:49;;;;;;;3.63;2.50;;;10.60;54.60;;;;;;1491829;39;20143;-52
2021/05/06 02:23:10;;;;;;;2.80;2.58;;;10.60;54.80;;;;;;1489856;39;20072;-53
2021/05/06 02:24:31;;;;;;;3.22;2.33;;;10.60;54.80;;;;;;1490417;39;20113;-53
2021/05/06 02:25:51;;;;;;;3.00;2.50;;;10.60;54.70;;;;;;1488670;39;20339;-50
2021/05/06 02:27:12;;;;;;;2.70;2.15;;;10.60;54.80;;;;;;1491774;39;20437;-53
2021/05/06 02:28:33;;;;;;;2.42;2.20;;;10.60;54.80;;;;;;1491912;39;20112;-53
2021/05/06 02:29:54;;;;;;;3.30;2.58;;;10.60;54.90;;;;;;1491356;39;20040;-51
2021/05/06 02:31:15;;;;;;;3.13;2.45;;;10.60;55.00;;;;;;1491198;39;20026;-50
2021/05/06 02:32:36;;;;;;;3.83;2.55;;;10.60;54.90;;;;;;1490805;39;20024;-54
2021/05/06 02:33:57;;;;;;;2.47;2.25;;;10.60;54.90;;;;;;1489815;39;20024;-53
2021/05/06 02:35:18;;;;;;;2.33;2.10;;;10.60;54.80;;;;;;1491429;39;20040;-53
2021/05/06 02:36:39;;;;;;;3.97;2.30;;;10.60;54.80;;;;;;1491258;39;20097;-50
2021/05/06 02:38:00;;;;;;;3.83;2.88;;;10.60;54.80;;;;;;1489872;39;20142;-53
2021/05/06 02:39:21;;;;;;;3.17;2.45;;;10.60;54.90;;;;;;1487455;40;20032;-50
2021/05/06 02:40:42;;;;;;;3.08;2.30;;;10.60;55.00;;;;;;1489366;39;20022;-53
2021/05/06 02:42:03;;;;;;;2.92;2.15;;;10.60;54.90;;;;;;1491107;39;20019;-54
2021/05/06 02:43:24;;;;;;;3.40;2.28;;;10.60;55.10;;;;;;1490040;39;20040;-53
2021/05/06 02:44:45;;;;;;;2.42;2.22;;;10.60;55.20;;;;;;1490414;39;20069;-51
2021/05/06 02:46:06;;;;;;;3.38;2.13;;;10.60;55.30;;;;;;1491776;39;20027;-52
2021/05/06 02:47:28;;;;;;;2.13;1.70;;;10.60;55.40;;;;;;1490900;39;20365;-52
2021/05/06 02:48:49;;;;;;;2.33;2.13;;;10.60;55.40;;;;;;1490496;39;20350;-52
2021/05/06 02:50:14;;;;;;;2.85;2.17;;;10.60;55.40;;;;;;1491017;39;20042;-50
2021/05/06 02:51:39;;;;;;;2.15;1.92;;;10.60;55.40;;;;;;1490486;39;20062;-53
2021/05/06 02:53:14;;;;;;;2.08;1.88;;;10.60;55.40;;;;;;1489609;39;20027;-51
2021/05/06 02:54:42;;;;;;;5.47;2.05;;;10.60;55.40;;;;;;1489781;39;20036;-52
2021/05/06 02:56:10;;;;;;;2.03;1.80;;;10.60;55.30;;;;;;1491043;39;20020;-52
2021/05/06 02:57:49;;;;;;;2.40;1.60;;;10.60;55.30;;;;;;1491624;39;20028;-53
2021/05/06 02:59:32;;;;;;;1.70;1.60;;;10.60;55.40;;;;;;1491597;39;20031;-53
2021/05/06 03:04:10;;;;;;;2.30;1.80;;;10.70;55.30;;;;;;1491104;39;20038;-53
2021/05/06 03:05:36;;;;;;;2.08;1.52;;;10.70;55.10;;;;;;1489174;39;20047;-51
2021/05/06 03:07:05;;;;;;;1.80;1.65;;;10.70;55.10;;;;;;1490273;39;20043;-50
2021/05/06 03:08:39;;;;;;;2.40;1.58;;;10.70;55.20;;;;;;1490150;39;20059;-50
2021/05/06 03:13:10;;;;;;;2.15;1.70;;;10.70;55.20;;;;;;1488992;39;20353;-51
2021/05/06 03:14:47;;;;;;;1.40;1.30;;;10.70;55.20;;;;;;1490447;39;20090;-53
2021/05/06 03:21:27;;;;;;;2.90;1.98;;;10.60;54.90;;;;;;1489982;39;20116;-51
2021/05/06 03:22:49;;;;;;;2.55;1.63;;;10.70;55.00;;;;;;1491497;39;20074;-51
2021/05/06 03:24:11;;;;;;;1.65;1.55;;;10.70;55.00;;;;;;1491209;39;20035;-52
2021/05/06 03:25:32;;;;;;;2.38;1.95;;;10.60;55.20;;;;;;1490026;39;20031;-52
2021/05/06 03:26:54;;;;;;;2.22;1.38;;;10.60;55.40;;;;;;1489713;39;20020;-53
2021/05/06 03:28:23;;;;;;;2.20;1.50;;;10.60;55.40;;;;;;1489750;39;20030;-54
2021/05/06 03:41:36;;;;;;;1.70;1.60;;;10.60;55.40;;;;;;1489096;39;20040;-48
2021/05/06 03:43:34;;;;;;;3.78;1.55;;;10.60;55.30;;;;;;1489156;39;20043;-52
2021/05/06 03:50:14;;;;;;;2.25;1.80;;;10.60;55.20;;;;;;1490591;39;20032;-51
2021/05/06 04:18:01;;;;;;;4.10;2.08;;;10.50;55.60;;;;;;1491496;39;20040;-51
2021/05/06 04:25:35;;;;;;;3.35;2.22;;;10.40;55.70;;;;;;1488669;39;20454;-54
2021/05/06 04:25:51;;;;;;;1.95;1.70;;;10.50;55.70;;;;;;1489568;39;20085;-53
2021/05/06 04:27:47;;;;;;;3.10;2.03;;;10.40;55.60;;;;;;1489222;39;20028;-52
2021/05/06 04:36:52;;;;;;;2.63;2.10;;;10.40;55.80;;;;;;1489598;39;20621;-51
2021/05/06 04:38:15;;;;;;;3.10;2.15;;;10.40;55.80;;;;;;1491317;39;20085;-55
2021/05/06 04:54:05;;;;;;;2.42;2.00;;;10.50;56.20;;;;;;1489220;39;20039;-53
2021/05/06 04:55:48;;;;;;;3.17;2.10;;;10.50;56.10;;;;;;1490106;39;20369;-54
2021/05/06 05:03:33;;;;;;;4.18;2.50;;;10.50;56.20;;;;;;1489744;39;20020;-51
2021/05/06 05:04:54;;;;;;;2.70;2.15;;;10.50;56.10;;;;;;1490985;39;20093;-55
2021/05/06 05:06:17;;;;;;;2.78;2.47;;;10.50;56.00;;;;;;1488814;39;20075;-51
2021/05/06 05:07:42;;;;;;;3.47;2.45;;;10.50;56.20;;;;;;1491159;39;20574;-53
2021/05/06 05:10:42;;;;;;;3.90;2.47;;;10.50;56.20;;;;;;1488286;39;20032;-49
2021/05/06 05:13:51;;;;;;;2.85;2.65;;;10.50;56.10;;;;;;1491676;39;20051;-53
2021/05/06 05:18:33;;;;;;;2.60;2.40;;;10.50;56.40;;;;;;1490936;39;20020;-52
2021/05/06 05:21:23;;;;;;;3.15;2.72;;;10.50;56.20;;;;;;1490316;39;20126;-51
2021/05/06 05:24:23;;;;;;;5.00;3.03;;;10.50;56.40;;;;;;1491944;39;20238;-53
2021/05/06 05:25:47;;;;;;;3.28;2.85;;;10.50;56.50;;;;;;1491271;39;20031;-54
2021/05/06 05:27:08;;;;;;;4.30;2.90;;;10.50;56.50;;;;;;1491705;39;20392;-53
2021/05/06 05:28:29;;;;;;;2.78;2.53;;;10.50;56.60;;;;;;1491223;39;20051;-53
2021/05/06 05:29:51;;;;;;;3.10;2.58;;;10.40;56.50;;;;;;1491173;39;20028;-55
2021/05/06 05:31:12;;;;;;;3.97;3.20;;;10.40;56.60;;;;;;1491769;39;20356;-52
2021/05/06 05:32:33;;;;;;;3.83;3.33;;;10.40;56.70;;;;;;1490699;39;20043;-55
2021/05/06 05:34:02;;;;;;;3.42;2.95;;;10.50;56.80;;;;;;1491373;39;20092;-53
2021/05/06 05:36:02;;;;;;;4.72;3.10;;;10.50;56.80;;;;;;1491269;39;20034;-54
2021/05/06 05:37:16;;;;;;;5.18;3.03;;;10.40;56.80;;;;;;1491470;39;20059;-54
2021/05/06 05:38:56;;;;;;;4.25;2.80;;;10.50;56.90;;;;;;1492218;39;20115;-51
2021/05/06 05:40:30;;;;;;;4.20;3.17;;;10.50;57.10;;;;;;1492106;39;20100;-55
2021/05/06 05:55:29;;;;;;;3.63;3.25;;;10.60;56.90;;;;;;1485514;39;20048;-54
2021/05/06 05:56:51;;;;;;;4.00;3.53;;;10.60;56.90;;;;;;1490869;39;20031;-52
2021/05/06 05:58:12;;;;;;;4.30;3.28;;;10.60;57.00;;;;;;1489369;39;20028;-55
2021/05/06 05:59:33;;;;;;;4.32;3.65;;;10.60;57.00;;;;;;1487151;40;20127;-55
2021/05/06 06:00:54;;;;;;;4.65;3.78;;;10.60;57.10;;;;;;1490403;39;20027;-52
2021/05/06 06:02:15;;;;;;;4.35;3.72;;;10.60;57.10;;;;;;1490160;39;20043;-55
2021/05/06 06:03:36;;;;;;;4.57;4.13;;;10.60;57.50;;;;;;1492052;39;20046;-55
2021/05/06 06:04:56;;;;;;;3.85;3.50;;;10.60;57.20;;;;;;1490645;39;20077;-54
2021/05/06 06:06:17;;;;;;;3.65;3.33;;;10.70;57.20;;;;;;1490416;39;20042;-54
2021/05/06 06:07:38;;;;;;;3.50;3.20;;;10.70;57.20;;;;;;1491857;39;20077;-55
2021/05/06 06:08:59;;;;;;;6.13;3.80;;;10.70;57.30;;;;;;1492475;39;20036;-55
2021/05/06 06:10:20;;;;;;;7.78;3.45;;;10.70;57.30;;;;;;1491955;39;20043;-54
2021/05/06 06:11:41;;;;;;;3.67;3.33;;;10.70;57.20;;;;;;1491306;39;20031;-54
2021/05/06 06:13:02;;;;;;;3.72;3.33;;;10.70;57.30;;;;;;1491830;39;20365;-53
2021/05/06 06:17:36;;;;;;;6.80;3.90;;;10.80;57.30;;;;;;1489760;39;20092;-54
2021/05/06 06:18:59;;;;;;;4.07;3.72;;;10.80;57.30;;;;;;1490629;39;20031;-51
2021/05/06 06:20:21;;;;;;;4.00;3.50;;;10.90;57.30;;;;;;1488949;39;20039;-54
2021/05/06 06:21:53;;;;;;;4.88;3.17;;;10.90;57.20;;;;;;1490226;39;20241;-53
2021/05/06 06:23:14;;;;;;;5.15;3.85;;;10.90;57.20;;;;;;1492068;39;20039;-54
2021/05/06 06:24:35;;;;;;;4.00;3.60;;;10.90;57.10;;;;;;1490662;39;20027;-54
2021/05/06 06:25:57;;;;;;;3.70;3.40;;;10.90;57.10;;;;;;1492202;39;20028;-53
2021/05/06 06:27:20;;;;;;;5.32;3.42;;;10.90;57.10;;;;;;1490504;39;20031;-51
2021/05/06 06:28:43;;;;;;;4.18;3.38;;;10.90;57.10;;;;;;1490154;39;20038;-53
2021/05/06 06:30:07;;;;;;;3.72;3.42;;;10.90;57.10;;;;;;1491479;39;20028;-53
2021/05/06 06:31:34;;;;;;;5.85;3.75;;;11.00;57.20;;;;;;1491635;39;20039;-54
2021/05/06 06:32:57;;;;;;;4.78;3.50;;;11.00;57.40;;;;;;1491914;39;20058;-55
2021/05/06 06:34:18;;;;;;;6.25;3.00;;;11.00;57.30;;;;;;1489998;39;20039;-51
2021/05/06 06:35:39;;;;;;;4.22;3.83;;;11.00;57.30;;;;;;1491918;39;20063;-52
2021/05/06 06:37:00;;;;;;;5.80;3.25;;;11.00;57.10;;;;;;1488726;39;20031;-53
2021/05/06 06:38:21;;;;;;;5.15;3.95;;;11.00;57.10;;;;;;1490887;39;20031;-54
2021/05/06 06:39:43;;;;;;;4.40;4.00;;;11.10;57.10;;;;;;1491011;39;20024;-55
2021/05/06 06:41:08;;;;;;;4.93;3.63;;;11.10;57.20;;;;;;1491313;39;20061;-54
2021/05/06 06:42:29;;;;;;;4.40;3.47;;;11.10;57.30;;;;;;1491302;39;20042;-51
2021/05/06 06:43:52;;;;;;;5.03;3.60;;;11.10;57.30;;;;;;1490502;39;20047;-54
2021/05/06 06:45:13;;;;;;;7.00;4.65;;;11.20;57.40;;;;;;1489698;39;20024;-54
2021/05/06 06:46:34;;;;;;;5.90;4.18;;;11.20;57.40;;;;;;1490417;39;20117;-55
2021/05/06 06:47:56;;;;;;;4.78;4.28;;;11.20;57.40;;;;;;1491872;39;20055;-54
2021/05/06 06:49:17;;;;;;;6.55;4.65;;;11.20;57.30;;;;;;1488875;39;20048;-54
2021/05/06 06:50:37;;;;;;;5.30;4.45;;;11.30;57.20;;;;;;1491227;39;20024;-53
2021/05/06 06:52:03;;;;;;;5.50;4.93;;;11.30;57.20;;;;;;1489702;39;20025;-53
2021/05/06 06:53:24;;;;;;;6.90;5.13;;;11.30;57.10;;;;;;1490757;39;20116;-55
2021/05/06 06:54:46;;;;;;;5.80;5.20;;;11.30;57.00;;;;;;1491259;39;20100;-53
2021/05/06 06:56:07;;;;;;;6.05;5.18;;;11.40;57.00;;;;;;1491348;39;20037;-51
2021/05/06 06:57:28;;;;;;;6.38;4.80;;;11.40;56.80;;;;;;1490674;39;20035;-53
2021/05/06 06:58:51;;;;;;;7.10;5.03;;;11.40;56.90;;;;;;1490018;39;20047;-51
2021/05/06 07:00:13;;;;;;;5.18;4.50;;;11.40;57.00;;;;;;1491444;39;20027;-55
2021/05/06 07:01:36;;;;;;;7.75;4.45;;;11.50;56.80;;;;;;1491108;39;20036;-55
2021/05/06 07:02:56;;;;;;;5.13;4.43;;;11.50;56.80;;;;;;1491402;39;20020;-55
2021/05/06 07:04:17;;;;;;;7.35;5.07;;;11.50;56.90;;;;;;1491535;39;20028;-55
2021/05/06 07:05:40;;;;;;;5.25;4.75;;;11.50;56.70;;;;;;1491780;39;20023;-53
2021/05/06 07:07:01;;;;;;;6.28;4.90;;;11.60;56.50;;;;;;1491964;39;20268;-53
2021/05/06 07:08:26;;;;;;;4.93;4.43;;;11.60;56.40;;;;;;1487268;40;20444;-52
2021/05/06 07:09:47;;;;;;;5.30;4.80;;;11.60;56.40;;;;;;1489626;39;20367;-54
2021/05/06 07:11:09;;;;;;;5.22;4.60;;;11.60;56.30;;;;;;1491485;39;20027;-54
2021/05/06 07:12:31;;;;;;;5.88;5.28;;;11.60;56.20;;;;;;1490869;39;20371;-56
2021/05/06 07:13:52;;;;;;;5.50;4.82;;;11.60;56.10;;;;;;1486769;39;20032;-51
2021/05/06 07:15:13;;;;;;;5.47;4.82;;;11.70;56.10;;;;;;1490783;39;20403;-55
2021/05/06 07:16:34;;;;;;;5.53;4.95;;;11.70;56.10;;;;;;1491672;39;20072;-54
2021/05/06 07:17:55;;;;;;;4.93;4.43;;;11.70;56.10;;;;;;1491224;39;20044;-50
2021/05/06 07:19:16;;;;;;;8.13;5.13;;;11.70;56.10;;;;;;1489694;39;20024;-54
2021/05/06 07:20:37;;;;;;;5.57;4.53;;;11.70;56.10;;;;;;1491625;39;20023;-55
2021/05/06 07:21:58;;;;;;;7.03;5.20;;;11.80;56.30;;;;;;1491436;39;20023;-54
2021/05/06 07:23:20;;;;;;;6.40;5.20;;;11.80;56.40;;;;;;1489976;39;20051;-54
2021/05/06 07:24:41;;;;;;;5.10;4.60;;;11.80;56.40;;;;;;1492025;39;20072;-52
2021/05/06 07:26:03;;;;;;;5.57;5.07;;;11.90;56.30;;;;;;1489067;39;20025;-52
2021/05/06 07:27:24;;;;;;;5.53;4.50;;;11.90;56.20;;;;;;1490246;39;20075;-54
2021/05/06 07:28:45;;;;;;;6.70;4.85;;;11.90;56.10;;;;;;1490973;39;20023;-50
2021/05/06 07:30:07;;;;;;;5.00;4.50;;;11.90;56.00;;;;;;1491028;39;20032;-55
2021/05/06 07:31:28;;;;;;;6.47;4.65;;;12.00;56.00;;;;;;1491220;39;20036;-54
2021/05/06 07:32:48;;;;;;;6.57;5.32;;;12.00;56.10;;;;;;1489212;39;20036;-51
2021/05/06 07:34:09;;;;;;;7.28;4.70;;;12.00;55.90;;;;;;1491703;39;20024;-53
2021/05/06 07:35:33;;;;;;;6.38;5.20;;;12.00;55.90;;;;;;1491547;39;20069;-51
2021/05/06 07:36:54;;;;;;;5.53;4.90;;;12.10;56.10;;;;;;1491887;39;20056;-53
2021/05/06 07:38:15;;;;;;;6.75;5.35;;;12.10;56.00;;;;;;1491115;39;20378;-54
2021/05/06 07:39:36;;;;;;;5.07;4.57;;;12.10;56.00;;;;;;1489411;39;20032;-54
2021/05/06 07:40:59;;;;;;;5.40;4.90;;;12.20;56.50;;;;;;1490284;39;20495;-55
2021/05/06 07:42:20;;;;;;;7.35;5.53;;;12.20;55.90;;;;;;1491140;39;20035;-55
2021/05/06 07:43:44;;;;;;;6.65;5.45;;;12.30;55.70;;;;;;1490879;39;20035;-55
2021/05/06 07:45:06;;;;;;;6.97;5.43;;;12.30;55.50;;;;;;1491019;39;20051;-55
2021/05/06 07:46:28;;;;;;;5.72;5.20;;;12.30;55.60;;;;;;1489980;39;20028;-51
2021/05/06 07:47:49;;;;;;;6.00;5.45;;;12.30;55.60;;;;;;1491096;39;20302;-53
2021/05/06 07:49:09;;;;;;;5.68;5.18;;;12.40;55.50;;;;;;1489693;39;20040;-54
2021/05/06 07:50:31;;;;;;;6.55;5.38;;;12.40;55.50;;;;;;1491161;39;20287;-50
2021/05/06 07:51:51;;;;;;;5.60;5.10;;;12.40;55.30;;;;;;1491410;39;20028;-54
2021/05/06 07:53:15;;;;;;;5.32;4.82;;;12.50;55.30;;;;;;1491095;39;20036;-52
2021/05/06 07:54:36;;;;;;;5.85;4.68;;;12.50;55.10;;;;;;1490435;39;20036;-54
2021/05/06 07:55:57;;;;;;;4.63;4.20;;;12.50;54.90;;;;;;1491664;39;20031;-53
2021/05/06 07:57:18;;;;;;;5.97;4.20;;;12.50;54.80;;;;;;1491374;39;20367;-53
2021/05/06 07:58:39;;;;;;;4.88;3.60;;;12.50;54.60;;;;;;1488889;39;20024;-55
2021/05/06 08:00:01;;;;;;;4.13;3.33;;;12.60;54.30;;;;;;1491766;39;20116;-55
2021/05/06 08:01:21;;;;;;;4.10;3.38;;;12.60;54.20;;;;;;1491591;39;20036;-53
2021/05/06 08:02:43;;;;;;;4.90;3.60;;;12.60;54.10;;;;;;1491661;39;20388;-56
2021/05/06 08:04:04;;;;;;;4.00;3.60;;;12.60;53.90;;;;;;1490771;39;20066;-53
2021/05/06 08:05:25;;;;;;;4.07;3.55;;;12.60;53.80;;;;;;1489149;39;20072;-53
2021/05/06 08:06:47;;;;;;;4.20;3.80;;;12.60;53.80;;;;;;1489452;39;20116;-53
2021/05/06 08:08:08;;;;;;;4.32;3.85;;;12.60;53.70;;;;;;1491547;39;20087;-54
2021/05/06 08:09:29;;;;;;;4.43;4.00;;;12.60;53.90;;;;;;1490586;39;20031;-52
2021/05/06 08:10:50;;;;;;;3.50;3.20;;;12.60;53.90;;;;;;1490844;39;20034;-48
2021/05/06 08:12:13;;;;;;;4.70;3.70;;;12.60;53.80;;;;;;1490384;39;20092;-53
2021/05/06 08:13:34;;;;;;;4.68;3.88;;;12.60;53.60;;;;;;1491451;39;20093;-54
2021/05/06 08:14:55;;;;;;;4.07;3.67;;;12.70;53.30;;;;;;1491329;39;20040;-55
2021/05/06 08:16:16;;;;;;;3.33;3.03;;;12.70;53.10;;;;;;1491436;39;20036;-54
2021/05/06 08:17:39;;;;;;;4.20;3.30;;;12.70;53.20;;;;;;1491110;39;20104;-51
2021/05/06 08:19:00;;;;;;;5.10;3.75;;;12.70;53.20;;;;;;1489853;39;20036;-53
2021/05/06 08:20:21;;;;;;;4.68;3.38;;;12.70;53.20;;;;;;1490791;39;20369;-52
2021/05/06 08:21:42;;;;;;;3.85;3.53;;;12.70;53.00;;;;;;1490071;39;20031;-53
2021/05/06 08:23:03;;;;;;;3.80;3.50;;;12.80;53.00;;;;;;1489730;39;20339;-53
2021/05/06 08:24:24;;;;;;;4.78;3.60;;;12.80;53.00;;;;;;1491249;39;20385;-53
2021/05/06 08:25:45;;;;;;;4.32;3.33;;;12.80;53.20;;;;;;1490155;39;20028;-54
2021/05/06 08:27:06;;;;;;;6.10;3.72;;;12.80;53.40;;;;;;1491635;39;20043;-53
2021/05/06 08:28:27;;;;;;;3.17;2.97;;;12.80;53.40;;;;;;1491429;39;20028;-53
2021/05/06 08:29:48;;;;;;;3.60;3.20;;;12.90;53.30;;;;;;1491486;39;20032;-52
2021/05/06 08:31:09;;;;;;;3.88;3.17;;;12.90;53.20;;;;;;1490884;39;20724;-55
2021/05/06 08:32:30;;;;;;;4.55;3.15;;;13.00;53.20;;;;;;1490140;39;20055;-54
2021/05/06 08:33:51;;;;;;;4.80;2.97;;;13.00;53.00;;;;;;1490538;39;20050;-55
2021/05/06 08:35:12;;;;;;;5.63;3.00;;;13.10;53.10;;;;;;1491417;39;20030;-53
2021/05/06 08:36:34;;;;;;;3.72;3.38;;;13.10;52.90;;;;;;1489961;39;20043;-53
2021/05/06 08:37:55;;;;;;;4.55;2.80;;;13.10;52.60;;;;;;1490844;39;20027;-50
2021/05/06 08:39:15;;;;;;;3.40;2.97;;;13.10;52.30;;;;;;1489766;39;20372;-51
2021/05/06 08:40:37;;;;;;;3.50;3.10;;;13.10;52.00;;;;;;1490656;39;20020;-55
2021/05/06 08:41:59;;;;;;;2.97;2.67;;;13.20;52.40;;;;;;1490921;39;20613;-52
2021/05/06 08:43:21;;;;;;;3.75;3.03;;;13.20;51.70;;;;;;1491350;39;20366;-52
2021/05/06 08:44:43;;;;;;;3.03;2.70;;;13.20;51.50;;;;;;1491349;39;20028;-54
2021/05/06 08:46:04;;;;;;;2.80;2.60;;;13.20;51.50;;;;;;1491247;39;20371;-53
2021/05/06 08:47:26;;;;;;;3.38;2.42;;;13.30;51.50;;;;;;1490388;39;20043;-51
2021/05/06 08:48:47;;;;;;;4.07;2.78;;;13.20;51.30;;;;;;1491211;39;20016;-55
2021/05/06 08:50:09;;;;;;;3.55;2.67;;;13.30;51.30;;;;;;1492123;39;20039;-54
2021/05/06 08:51:30;;;;;;;3.03;2.75;;;13.30;51.30;;;;;;1491577;39;20050;-53
2021/05/06 08:52:52;;;;;;;2.65;2.45;;;13.40;51.40;;;;;;1491312;39;20024;-53
2021/05/06 08:54:13;;;;;;;3.53;2.50;;;13.40;51.30;;;;;;1491148;39;20039;-51
2021/05/06 08:55:34;;;;;;;3.30;2.58;;;13.40;51.10;;;;;;1491062;39;20543;-52
2021/05/06 08:56:57;;;;;;;3.72;2.35;;;13.50;50.90;;;;;;1491303;39;20057;-51
2021/05/06 08:58:17;;;;;;;2.80;2.60;;;13.60;50.90;;;;;;1491871;39;20043;-53
2021/05/06 08:59:38;;;;;;;2.67;2.47;;;13.60;50.90;;;;;;1490559;39;20396;-53
2021/05/06 09:00:59;;;;;;;2.50;2.30;;;13.60;50.70;;;;;;1489898;39;20016;-53
2021/05/06 09:02:21;;;;;;;2.30;2.20;;;13.70;50.70;;;;;;1490123;39;20043;-52
2021/05/06 09:03:42;;;;;;;3.17;2.33;;;13.70;50.50;;;;;;1490369;39;20016;-52
2021/05/06 09:05:07;;;;;;;2.95;2.40;;;13.70;50.50;;;;;;1489105;39;20266;-53
2021/05/06 09:06:28;;;;;;;2.40;2.22;;;13.70;49.80;;;;;;1490790;39;20023;-54
2021/05/06 09:07:49;;;;;;;3.35;2.67;;;13.80;50.00;;;;;;1491153;39;20024;-54
2021/05/06 09:09:17;;;;;;;4.07;2.42;;;13.80;49.90;;;;;;1491177;39;20039;-55
2021/05/06 09:10:39;;;;;;;3.20;2.63;;;13.80;49.70;;;;;;1490321;39;20075;-52
2021/05/06 09:12:02;;;;;;;2.95;2.50;;;13.80;50.40;;;;;;1491789;39;20047;-52
2021/05/06 09:13:29;;;;;;;3.00;2.30;;;13.90;49.80;;;;;;1487985;39;20028;-55
2021/05/06 09:14:50;;;;;;;2.90;1.80;;;13.90;49.60;;;;;;1490853;39;20036;-53
2021/05/06 09:16:11;;;;;;;3.50;2.42;;;14.00;49.70;;;;;;1491274;39;20116;-55
2021/05/06 09:17:33;;;;;;;3.78;2.60;;;14.00;49.80;;;;;;1486984;39;20036;-51
2021/05/06 09:19:03;;;;;;;3.17;2.72;;;14.10;49.80;;;;;;1490511;39;20115;-51
2021/05/06 09:20:26;;;;;;;4.32;2.58;;;14.10;49.10;;;;;;1492448;39;20028;-53
2021/05/06 09:21:47;;;;;;;2.47;2.28;;;14.10;49.30;;;;;;1489951;39;20032;-54
2021/05/06 09:23:07;;;;;;;3.33;2.55;;;14.20;49.50;;;;;;1490466;39;20035;-50
2021/05/06 09:24:35;;;;;;;2.55;2.35;;;14.30;49.30;;;;;;1491063;39;20044;-51
2021/05/06 09:26:01;;;;;;;2.83;2.28;;;14.30;49.00;;;;;;1491722;39;20150;-50
2021/05/06 09:27:27;;;;;;;2.75;2.05;;;14.40;48.40;;;;;;1491033;39;20075;-50
2021/05/06 09:28:49;;;;;;;3.38;2.40;;;14.40;48.60;;;;;;1492151;39;20035;-51
2021/05/06 09:30:12;;;;;;;3.25;2.90;;;14.40;48.70;;;;;;1491573;39;20059;-52
2021/05/06 09:31:41;;;;;;;4.90;2.67;;;14.40;48.30;;;;;;1487117;40;20032;-52
2021/05/06 09:33:08;;;;;;;3.97;2.75;;;14.50;48.20;;;;;;1490857;39;20276;-54
2021/05/06 09:34:36;;;;;;;3.78;2.60;;;14.50;48.40;;;;;;1491271;39;20030;-55
2021/05/06 09:36:06;;;;;;;2.50;2.30;;;14.60;48.20;;;;;;1492127;39;20024;-52
2021/05/06 09:37:30;;;;;;;3.33;2.13;;;14.70;48.50;;;;;;1489878;39;20112;-51
2021/05/06 09:38:53;;;;;;;2.88;2.35;;;14.70;48.50;;;;;;1489874;39;20028;-52
2021/05/06 09:40:18;;;;;;;2.97;2.30;;;14.80;49.10;;;;;;1491609;39;20030;-50
2021/05/06 09:41:39;;;;;;;2.38;2.17;;;14.90;48.10;;;;;;1491570;39;20035;-51
2021/05/06 09:43:00;;;;;;;2.40;2.20;;;15.00;48.50;;;;;;1491836;39;20035;-50
2021/05/06 09:44:20;;;;;;;2.30;2.00;;;15.10;48.20;;;;;;1491830;39;20040;-51
2021/05/06 09:45:41;;;;;;;2.42;2.00;;;15.10;47.80;;;;;;1489932;39;20028;-50
2021/05/06 09:47:15;;;;;;;2.15;2.03;;;15.20;47.50;;;;;;1491494;39;20273;-53
2021/05/06 09:48:35;;;;;;;2.30;2.10;;;15.30;46.60;;;;;;1489047;39;20039;-53
2021/05/06 09:49:56;;;;;;;2.15;1.92;;;15.30;46.70;;;;;;1490502;39;20422;-50
2021/05/06 09:51:29;;;;;;;2.40;2.20;;;15.30;46.20;;;;;;1489685;39;20032;-54
2021/05/06 09:52:54;;;;;;;2.47;2.13;;;15.30;45.50;;;;;;1491414;39;20024;-51
2021/05/06 09:54:26;;;;;;;2.38;2.28;;;15.30;46.00;;;;;;1491556;39;20032;-53
2021/05/06 09:55:49;;;;;;;2.92;2.25;;;15.30;45.70;;;;;;1490587;39;20024;-53
2021/05/06 09:57:10;;;;;;;4.38;2.60;;;15.30;46.50;;;;;;1489395;39;20501;-53
2021/05/06 09:58:33;;;;;;;2.92;2.55;;;15.30;45.80;;;;;;1491770;39;20394;-54
2021/05/06 10:00:12;;;;;;;2.92;2.60;;;15.40;45.80;;;;;;1491662;39;20116;-53
2021/05/06 10:01:38;;;;;;;3.65;2.40;;;15.30;45.40;;;;;;1491069;39;20042;-50
2021/05/06 10:03:09;;;;;;;4.10;2.20;;;15.40;45.60;;;;;;1491961;39;20048;-51
2021/05/06 10:04:30;;;;;;;2.08;1.98;;;15.40;46.00;;;;;;1491414;39;20067;-54
2021/05/06 10:05:52;;;;;;;2.60;2.40;;;15.40;45.70;;;;;;1491137;39;20020;-52
2021/05/06 10:07:15;;;;;;;3.78;2.65;;;15.40;45.70;;;;;;1491613;39;20149;-49
2021/05/06 10:08:39;;;;;;;2.55;2.35;;;15.50;46.00;;;;;;1491773;39;20119;-53
2021/05/06 10:10:07;;;;;;;3.83;2.20;;;15.50;46.40;;;;;;1491568;39;20753;-54
2021/05/06 10:11:28;;;;;;;2.38;2.17;;;15.70;46.40;;;;;;1491809;39;20350;-51
2021/05/06 10:12:49;;;;;;;2.50;2.30;;;15.70;46.80;;;;;;1487320;40;20064;-51
2021/05/06 10:14:10;;;;;;;3.25;2.30;;;15.80;46.50;;;;;;1489252;39;20032;-53
2021/05/06 10:15:31;;;;;;;2.15;2.00;;;15.90;46.40;;;;;;1490688;39;20042;-51
2021/05/06 10:16:52;;;;;;;2.47;2.10;;;16.00;46.30;;;;;;1491221;39;20031;-52
2021/05/06 10:18:16;;;;;;;2.60;2.00;;;16.10;45.40;;;;;;1492124;39;20031;-50